Das ist die Wetter- und Hausseite der Bittkau's aus Magdeburg Ottersleben


Hier werden aktuelle Daten aus der privaten Wetterstation und

andere lokale Wettervorhersagen bereitgestellt




Thunder radar more information blitzortung!


Rain radar more information rain snow radar



Es ist keine erhöhte Aufmerksamkeit aufgrund des Wetters notwendig.    Es gibt keine Warnungen.

METAR-Meldungen aus der Umgebung

   
EDDP - Leipzig
Aktualisierung: 28.01.2020 5:20
Leichter Niederschlag möglich, Stark bewölkt  
Leichter Niederschlag möglich, Stark bewölkt  
   Wind: SSW 25.9 km/h
Wind: SSW 25.9 km/h
Temperatur: 6°C
Gefühlt: 2°C
Taupunkt: 4°C
Luftfeuchte: 87%
Luftdruck: 996 hPa
Bewölkt: Stark bewölkt
Sichtbarkeit: More than 10 km
Bewölkung: Stark bewölkt 853.4 m
EDDP 280420Z 20014KT 9999 -RA BKN028 06/04 Q0996 TEMPO 18015G25KT
EDDC - Dresden
Aktualisierung: 28.01.2020 5:50
Leichter Niederschlag möglich, Teilweise bewölkt  
Leichter Niederschlag möglich, Teilweise bewölkt  
   Wind: Süden 29.6 km/h
Wind: Süden 29.6 km/h
Temperatur: 5°C
Gefühlt: 0°C
Taupunkt: 2°C
Luftfeuchte: 81%
Luftdruck: 997 hPa
Bewölkt: Teilweise bewölkt
Sichtbarkeit: More than 10 km
Bewölkung: Teilweise bewölkt 1097.3 m
EDDC 280450Z 18016KT 9999 -RA SCT036 05/02 Q0997 TEMPO RA
EDDE - Erfurt
Aktualisierung: 28.01.2020 5:50
Stark bewölkt  
Stark bewölkt  
   Wind: SSW 24.1 km/h
Wind: SSW 24.1 km/h
Temperatur: 5°C
Gefühlt: 1°C
Taupunkt: 3°C
Luftfeuchte: 87%
Luftdruck: 995 hPa
Bewölkt: Stark bewölkt
Sichtbarkeit: More than 10 km
Bewölkung: leicht bewölkt 396.2 m,
Stark bewölkt 914.4 m
EDDE 280450Z 21013KT 9999 FEW013 BKN030 05/03 Q0995 TEMPO 21015G25KT
EDVE - Braunschweig
Aktualisierung: 27.01.2020 10:20
Nicht aktuell
Leichter Nieselregen, Bewölkt  
Leichter Nieselregen, Bewölkt  
   Wind: Süden 9.3 km/h
Wind: Süden 9.3 km/h
Temperatur: 6°C
Gefühlt: 4°C
Taupunkt: 4°C
Luftfeuchte: 87%
Luftdruck: 1001 hPa
Bewölkt: Bewölkt
Sichtbarkeit: More than 10 km
Bewölkung: leicht bewölkt 457.2 m,
Teilweise bewölkt 1097.3 m,
Bewölkt 1280.2 m
EDVE 272120Z 17005KT 140V200 9999 -DZ FEW015 SCT036 OVC042 06/04 Q1001
EDDV - Hannover
Aktualisierung: 28.01.2020 5:50
Leichter Niederschlag möglich, Stark bewölkt  
Leichter Niederschlag möglich, Stark bewölkt  
   Wind: SW 14.8 km/h
Wind: SW 14.8 km/h
Temperatur: 7°C
Gefühlt: 4°C
Taupunkt: 4°C
Luftfeuchte: 81%
Luftdruck: 991 hPa
Bewölkt: Stark bewölkt
Sichtbarkeit: More than 10 km
Bewölkung: Stark bewölkt 792.5 m
EDDV 280450Z 22008KT 9999 -RA BKN026 07/04 Q0991 NOSIG
EDDT - Berlin
Aktualisierung: 28.01.2020 5:50
Leichter Niederschlag möglich, Stark bewölkt  
Leichter Niederschlag möglich, Stark bewölkt  
   Wind: Süden 20.4 km/h
Wind: Süden 20.4 km/h
Temperatur: 6°C
Gefühlt: 2°C
Taupunkt: 4°C
Luftfeuchte: 87%
Luftdruck: 995 hPa
Bewölkt: Stark bewölkt
Sichtbarkeit: More than 10 km
Bewölkung: Stark bewölkt 640.1 m
EDDT 280450Z 18011KT 9999 -RA BKN021 06/04 Q0995 TEMPO RA
EDDE - Schwerin
Aktualisierung: 28.01.2020 5:50
Stark bewölkt  
Stark bewölkt  
   Wind: SSW 24.1 km/h
Wind: SSW 24.1 km/h
Temperatur: 5°C
Gefühlt: 1°C
Taupunkt: 3°C
Luftfeuchte: 87%
Luftdruck: 995 hPa
Bewölkt: Stark bewölkt
Sichtbarkeit: More than 10 km
Bewölkung: leicht bewölkt 396.2 m,
Stark bewölkt 914.4 m
EDDE 280450Z 21013KT 9999 FEW013 BKN030 05/03 Q0995 TEMPO 21015G25KT
EDHI - Hamburg
Aktualisierung: 28.01.2020 5:50
  
  
   Wind: SSW 22.2 km/h
Wind: SSW 22.2 km/h
Sichtbarkeit: More than 10 km
EDHI 280450Z AUTO 20012KT 9999 3700 // BKN011/// BKN014/// OVC018/// 06/05 Q0989
EDDK - Köln-Bonn
Aktualisierung: 28.01.2020 5:50
Stark bewölkt  
Stark bewölkt  
   Wind: SSO 16.7 km/h
Wind: SSO 16.7 km/h
Temperatur: 5°C
Gefühlt: 2°C
Taupunkt: 4°C
Luftfeuchte: 93%
Luftdruck: 994 hPa
Bewölkt: Stark bewölkt
Sichtbarkeit: More than 10 km
Bewölkung: Stark bewölkt 1219.2 m
EDDK 280450Z 15009KT 9999 BKN040 05/04 Q0994 TEMPO 23015G25KT
EDHL - Lübeck-Blankensee
Aktualisierung: 27.01.2020 7:50
Nicht aktuell
Nieselregen, Nebel, Stark bewölkt  
Nieselregen, Nebel, Stark bewölkt  
   Wind: SSO 7.4 km/h
Wind: SSO 7.4 km/h
Temperatur: 7°C
Gefühlt: 6°C
Taupunkt: 6°C
Luftfeuchte: 93%
Luftdruck: 1002 hPa
Bewölkt: Stark bewölkt
Sichtbarkeit: 3 km
Bewölkung: Stark bewölkt 457.2 m
EDHL 271850Z 16004KT 3000 DZ BR BKN015 07/06 Q1002
  

Script entwickelt von  Saratoga-weather.org Angepasst für das Template von  Weerstation Leuven

Sie finden die Wetterinfo auch auf:

Wetternetzwerk Deutschland

European Weather Network

Weather Underground

Regionalwetter-SA

wetter.com

wxforum.de

Genutzte Hardware, Software und WEB Anbieter:

Wetterstation
Ventus W928-Ultimate

Wetterprogramm
Meteohub

WetterComputer
RaspberryPI

Anbieter
WEB Provider One.com

Ventus W928-Ultimate

Meteohub

RaspberryPI

WEB Provider One.com